Messwerte Cambridge Bay

Temperatur

Temperatur
°C
1618894800 1.00 1.00 -11
1618898400 2.00 2.00 -12
1618902000 3.00 3.00 -12
1618905600 4.00 4.00 -11
1618909200 5.00 5.00 -10
1618912800 6.00 6.00 -10
1618916400 7.00 7.00 -10
1618920000 8.00 8.00 -10
1618923600 9.00 9.00 -10
1618927200 10.00 10.00 -9
1618930800 11.00 11.00 -9
1618934400 12.00 12.00 -8
1618938000 13.00 13.00 -8
1618941600 14.00 14.00 -7
1618945200 15.00 15.00
1618948800 16.00 16.00 -8
1618952400 17.00 17.00 -8
1618956000 18.00 18.00
1618959600 19.00 19.00 -8
1618963200 20.00 20.00 -8
1618966800 21.00 21.00 -8
1618970400 22.00 22.00 -8
1618974000 23.00 23.00 -8
1618977600 0.00 0.00 -7

Aktuellste Messwerte

Wettercharakter
Wetter: wechselnd bewölkt
Temperatur
-7 °C
Feuchtigkeit
93 %
Wind
20 km/hWindrichtung: Nordwest
Luftdruck
1005 hPa
Messzeit: 21. April 2021, 0.00Datenquelle: METAR

Weitere Messstationen in der Nähe

Messstation Temperatur Entfernung
Gjoa Haven -13 °C 375 km
Kugluktuk -7 °C 431 km
Lupin -7 °C 452 km
Spence Bay Airport -14 °C 455 km

Wind

Windrichtung Böen Mittelwind
° km/h km/h
1618894800 1.00 0.00 - 1.00 270° 10
1618898400 2.00 1.00 - 2.00 280° 10
1618902000 3.00 2.00 - 3.00 350° 15
1618905600 4.00 3.00 - 4.00 20° 5
1618909200 5.00 4.00 - 5.00 110° 5
1618912800 6.00 5.00 - 6.00 240° 5
1618916400 7.00 6.00 - 7.00 0
1618920000 8.00 7.00 - 8.00 60° 5
1618923600 9.00 8.00 - 9.00 0
1618927200 10.00 9.00 - 10.00 140° 5
1618930800 11.00 10.00 - 11.00 100° 5
1618934400 12.00 11.00 - 12.00 140° 10
1618938000 13.00 12.00 - 13.00 170° 20
1618941600 14.00 13.00 - 14.00 170° 15
1618945200 15.00 14.00 - 15.00
1618948800 16.00 15.00 - 16.00 180° 15
1618952400 17.00 16.00 - 17.00 180° 15
1618956000 18.00 17.00 - 18.00
1618959600 19.00 18.00 - 19.00 230° 15
1618963200 20.00 19.00 - 20.00 260° 20
1618966800 21.00 20.00 - 21.00 280° 10
1618970400 22.00 21.00 - 22.00 300° 15
1618974000 23.00 22.00 - 23.00 300° 20
1618977600 0.00 23.00 - 0.00 310° 20

Ihre Wetterstation

Fehlt Ihre Wetterstation auf unserem Portal?

Schreiben Sie an network@meteonews.ch

Klima

Wann ist es am wärmsten? Wann regnet es am wenigsten? Unsere Klimadaten geben Auskunft.